createdAt,value
2023-05-05T00:02:29.586Z,14.32
2023-05-05T00:05:32.951Z,12.85
2023-05-05T00:08:36.481Z,13.55
2023-05-05T00:11:39.709Z,13.47
2023-05-05T00:14:43.350Z,13.38
2023-05-05T00:17:46.676Z,13.57
2023-05-05T00:20:50.101Z,12.55
2023-05-05T00:23:53.515Z,12.43
2023-05-05T00:26:56.630Z,12.83
2023-05-05T00:29:59.785Z,14.55
2023-05-05T00:33:03.264Z,14.25
2023-05-05T00:36:06.952Z,14.38
2023-05-05T00:39:10.902Z,13.98
2023-05-05T00:42:14.301Z,14.50
2023-05-05T00:45:18.856Z,16.15
2023-05-05T00:48:24.528Z,14.18
2023-05-05T00:51:29.014Z,12.68
2023-05-05T00:54:32.597Z,15.05
2023-05-05T00:57:36.497Z,14.57
2023-05-05T01:00:39.828Z,13.48
2023-05-05T01:03:43.212Z,13.23
2023-05-05T01:06:52.295Z,13.98
2023-05-05T01:10:27.044Z,13.68
2023-05-05T01:13:48.098Z,16.00
2023-05-05T01:17:00.069Z,13.32
2023-05-05T01:20:23.766Z,17.85
2023-05-05T01:24:01.079Z,15.43
2023-05-05T01:27:31.923Z,16.00
2023-05-05T01:30:49.712Z,17.60
2023-05-05T01:33:59.950Z,14.77
2023-05-05T01:37:15.157Z,15.75
2023-05-05T01:40:24.987Z,15.68
2023-05-05T01:43:31.555Z,17.63
2023-05-05T01:46:36.830Z,13.90
2023-05-05T01:49:41.897Z,15.63
2023-05-05T01:52:46.643Z,16.27
2023-05-05T01:55:50.682Z,18.02
2023-05-05T01:58:55.545Z,16.45
2023-05-05T02:02:02.060Z,15.57
2023-05-05T02:05:08.044Z,13.13
2023-05-05T02:08:12.189Z,14.23
2023-05-05T02:11:17.502Z,15.38
2023-05-05T02:14:22.183Z,14.32
2023-05-05T02:17:26.685Z,14.10
2023-05-05T02:20:32.399Z,13.60
2023-05-05T02:23:36.482Z,13.05
2023-05-05T02:26:41.807Z,12.55
2023-05-05T02:29:50.521Z,11.10
2023-05-05T02:33:00.742Z,10.23
2023-05-05T02:36:14.479Z,11.25
2023-05-05T02:39:38.410Z,10.18
2023-05-05T02:42:48.523Z,10.70
2023-05-05T02:45:52.065Z,11.90
2023-05-05T02:48:56.461Z,10.03
2023-05-05T02:52:01.037Z,11.75
2023-05-05T02:55:09.922Z,15.25
2023-05-05T02:58:34.653Z,12.35
2023-05-05T03:01:46.470Z,10.50
2023-05-05T03:05:00.819Z,16.07
2023-05-05T03:08:18.314Z,11.95
2023-05-05T03:12:03.872Z,11.32
2023-05-05T03:15:13.307Z,10.82
2023-05-05T03:18:18.261Z,10.90
2023-05-05T03:21:27.828Z,11.10
2023-05-05T03:24:32.071Z,13.20
2023-05-05T03:27:41.691Z,13.70
2023-05-05T03:30:45.699Z,12.30
2023-05-05T03:33:50.072Z,12.18
2023-05-05T03:36:55.533Z,11.90
2023-05-05T03:39:58.746Z,11.82
2023-05-05T03:43:02.055Z,12.93
2023-05-05T03:46:05.622Z,11.90
2023-05-05T03:49:09.904Z,10.90
2023-05-05T03:52:15.131Z,9.47
2023-05-05T03:55:20.211Z,10.13
2023-05-05T03:58:23.546Z,10.73
2023-05-05T04:01:26.925Z,11.45
2023-05-05T04:04:30.336Z,13.80
2023-05-05T04:07:33.639Z,11.67
2023-05-05T04:10:36.947Z,9.18
2023-05-05T04:13:41.488Z,9.10
2023-05-05T04:16:44.843Z,10.45
2023-05-05T04:19:48.434Z,9.55
2023-05-05T04:22:52.709Z,10.97
2023-05-05T04:25:57.640Z,9.85
2023-05-05T04:29:02.329Z,9.13
2023-05-05T04:32:06.607Z,11.15
2023-05-05T04:35:11.341Z,10.93
2023-05-05T04:38:15.175Z,11.27
2023-05-05T04:41:18.761Z,9.55
2023-05-05T04:44:22.404Z,9.85
2023-05-05T04:47:25.862Z,9.73
2023-05-05T04:50:29.304Z,9.77
2023-05-05T04:53:32.992Z,11.30
2023-05-05T04:56:37.158Z,10.07
2023-05-05T04:59:40.383Z,15.95
2023-05-05T05:02:43.856Z,9.77
2023-05-05T05:05:47.175Z,9.75
2023-05-05T05:08:50.604Z,10.37
2023-05-05T05:11:53.992Z,10.15
2023-05-05T05:14:57.765Z,9.80
2023-05-05T05:18:01.039Z,11.73
2023-05-05T05:21:04.519Z,11.00
2023-05-05T05:24:17.710Z,10.83
2023-05-05T05:27:21.000Z,16.90
2023-05-05T05:30:26.423Z,12.82
2023-05-05T05:33:30.753Z,16.30
2023-05-05T05:36:35.272Z,9.73
2023-05-05T05:39:40.667Z,10.93
2023-05-05T05:42:46.171Z,10.32
2023-05-05T05:45:50.098Z,9.23
2023-05-05T05:48:53.846Z,17.70
2023-05-05T05:51:57.386Z,12.15
2023-05-05T05:55:01.188Z,10.10
2023-05-05T05:58:04.725Z,10.73
2023-05-05T06:01:07.959Z,11.40
2023-05-05T06:04:13.538Z,11.20
2023-05-05T06:07:17.206Z,9.90
2023-05-05T06:13:30.316Z,11.77
2023-05-05T06:16:34.604Z,10.68
2023-05-05T06:19:41.498Z,14.65
2023-05-05T06:22:46.599Z,8.68
2023-05-05T06:25:50.844Z,10.47
2023-05-05T06:28:54.172Z,14.55
2023-05-05T06:31:57.810Z,12.38
2023-05-05T06:35:02.391Z,11.45
2023-05-05T06:38:06.032Z,13.25
2023-05-05T06:41:09.497Z,14.10
2023-05-05T06:44:12.883Z,14.00
2023-05-05T06:47:16.156Z,10.65
2023-05-05T06:50:20.006Z,11.10
2023-05-05T06:53:23.309Z,11.10
2023-05-05T06:56:26.996Z,10.70
2023-05-05T06:59:30.321Z,13.82
2023-05-05T07:02:53.545Z,9.15
2023-05-05T07:05:57.733Z,9.57
2023-05-05T07:09:01.035Z,11.77
2023-05-05T07:12:04.747Z,9.90
2023-05-05T07:15:23.524Z,9.13
2023-05-05T07:18:29.841Z,10.77
2023-05-05T07:21:36.690Z,10.70
2023-05-05T07:24:40.525Z,10.43
2023-05-05T07:27:44.221Z,13.10
2023-05-05T07:30:47.596Z,10.52
2023-05-05T07:33:51.470Z,10.27
2023-05-05T07:36:56.467Z,12.40
2023-05-05T07:39:59.998Z,8.77
2023-05-05T07:43:05.106Z,9.23
2023-05-05T07:46:12.480Z,9.07
2023-05-05T07:49:16.360Z,9.10
2023-05-05T07:52:25.212Z,11.30
2023-05-05T07:55:39.266Z,8.60
2023-05-05T07:58:42.726Z,9.80
2023-05-05T08:01:46.052Z,12.95
2023-05-05T08:04:49.391Z,9.05
2023-05-05T08:07:52.912Z,8.70
2023-05-05T08:10:56.410Z,10.50
2023-05-05T08:13:59.819Z,8.93
2023-05-05T08:17:05.910Z,8.93
2023-05-05T08:20:09.632Z,10.68
2023-05-05T08:23:13.231Z,10.85
2023-05-05T08:26:18.895Z,12.30
2023-05-05T08:29:22.306Z,10.50
2023-05-05T08:32:27.827Z,12.45
2023-05-05T08:35:32.467Z,12.25
2023-05-05T08:38:36.397Z,9.98
2023-05-05T08:41:39.847Z,9.50
2023-05-05T08:44:43.338Z,9.00
2023-05-05T08:47:46.574Z,10.27
2023-05-05T08:50:56.628Z,10.63
2023-05-05T08:54:05.906Z,10.15
2023-05-05T08:57:10.912Z,9.32
2023-05-05T09:00:15.360Z,10.57
2023-05-05T09:03:18.946Z,11.63
2023-05-05T09:06:23.523Z,9.57
2023-05-05T09:09:28.382Z,7.78
2023-05-05T09:12:32.718Z,7.40
2023-05-05T09:15:38.864Z,8.60
2023-05-05T09:18:42.811Z,9.23
2023-05-05T09:21:52.014Z,13.43
2023-05-05T09:24:56.962Z,9.43
2023-05-05T09:28:07.571Z,9.95
2023-05-05T09:31:16.157Z,8.70
2023-05-05T09:34:20.285Z,12.65
2023-05-05T09:37:30.827Z,8.90
2023-05-05T09:40:46.597Z,11.45
2023-05-05T09:43:52.047Z,9.63
2023-05-05T09:46:55.972Z,9.57
2023-05-05T09:50:00.471Z,12.48
2023-05-05T09:53:04.325Z,10.38
2023-05-05T09:56:08.200Z,9.20
2023-05-05T09:59:12.043Z,10.13
2023-05-05T10:02:16.039Z,8.07
2023-05-05T10:05:19.542Z,9.70
2023-05-05T10:08:25.963Z,10.90
2023-05-05T10:11:29.333Z,10.32
2023-05-05T10:14:34.181Z,9.30
2023-05-05T10:18:02.807Z,11.50
2023-05-05T10:21:11.195Z,9.18
2023-05-05T10:24:30.215Z,8.90
2023-05-05T10:27:42.095Z,7.65
2023-05-05T10:30:48.868Z,10.02
2023-05-05T10:34:03.802Z,9.23
2023-05-05T10:37:07.749Z,10.10
2023-05-05T10:40:12.199Z,10.45
2023-05-05T10:43:16.001Z,8.38
2023-05-05T10:46:19.412Z,8.98
2023-05-05T10:49:33.384Z,17.10
2023-05-05T10:52:47.037Z,10.07
2023-05-05T10:56:13.948Z,14.82
2023-05-05T10:59:35.748Z,10.13
2023-05-05T11:02:40.244Z,8.02
2023-05-05T11:06:05.271Z,9.27
2023-05-05T11:09:27.959Z,14.75
2023-05-05T11:12:32.698Z,7.50
2023-05-05T11:15:38.025Z,11.80
2023-05-05T11:18:44.554Z,9.68
2023-05-05T11:22:03.457Z,9.57
2023-05-05T11:25:34.668Z,6.88
2023-05-05T11:28:59.888Z,7.75
2023-05-05T11:32:13.833Z,6.60
2023-05-05T11:35:17.515Z,6.38
2023-05-05T11:38:40.556Z,7.00
2023-05-05T11:42:20.451Z,5.65
2023-05-05T11:45:25.020Z,7.50
2023-05-05T11:48:28.411Z,6.45
2023-05-05T11:51:32.542Z,6.95
2023-05-05T11:54:38.174Z,7.07
2023-05-05T11:57:41.428Z,9.00
2023-05-05T12:00:44.735Z,8.57
2023-05-05T12:03:48.214Z,7.60
2023-05-05T12:06:51.639Z,9.00
2023-05-05T12:09:55.256Z,8.57
2023-05-05T12:13:00.999Z,7.70
2023-05-05T12:16:15.360Z,8.20
2023-05-05T12:19:21.818Z,8.32
2023-05-05T12:22:26.771Z,8.68
2023-05-05T12:25:38.171Z,10.87
2023-05-05T12:28:48.334Z,7.70
2023-05-05T12:31:51.992Z,8.57
2023-05-05T12:34:59.669Z,8.13
2023-05-05T12:38:03.182Z,5.53
2023-05-05T12:41:07.046Z,7.90
2023-05-05T12:44:10.602Z,6.75
2023-05-05T12:47:14.783Z,8.32
2023-05-05T12:50:31.652Z,7.80
2023-05-05T12:53:35.739Z,8.60
2023-05-05T12:56:44.293Z,6.67
2023-05-05T12:59:48.044Z,9.90
2023-05-05T13:02:51.479Z,6.85
2023-05-05T13:05:55.954Z,6.45
2023-05-05T13:09:01.926Z,8.45
2023-05-05T13:12:10.029Z,6.53
2023-05-05T13:15:13.763Z,6.20
2023-05-05T13:18:17.075Z,6.90
2023-05-05T13:21:20.352Z,6.20
2023-05-05T13:24:37.825Z,9.93
2023-05-05T13:27:45.868Z,7.10
2023-05-05T13:30:49.236Z,7.85
2023-05-05T13:33:52.879Z,6.93
2023-05-05T13:36:56.590Z,6.88
2023-05-05T13:40:00.475Z,10.13
2023-05-05T13:43:03.719Z,7.80
2023-05-05T13:46:19.042Z,9.90
2023-05-05T13:49:23.839Z,6.70
2023-05-05T13:52:27.731Z,7.07
2023-05-05T13:55:31.965Z,6.78
2023-05-05T13:58:37.103Z,7.67
2023-05-05T14:01:41.042Z,6.65
2023-05-05T14:04:46.329Z,9.43
2023-05-05T14:07:49.586Z,7.97
2023-05-05T14:10:56.576Z,8.60
2023-05-05T14:13:59.891Z,7.30
2023-05-05T14:17:03.154Z,7.20
2023-05-05T14:20:07.200Z,6.63
2023-05-05T14:23:10.739Z,6.93
2023-05-05T14:26:13.882Z,7.82
2023-05-05T14:29:19.971Z,8.17
2023-05-05T14:32:23.348Z,6.68
2023-05-05T14:35:26.662Z,6.97
2023-05-05T14:38:30.176Z,6.45
2023-05-05T14:41:33.884Z,8.18
2023-05-05T14:44:37.244Z,6.20
2023-05-05T14:47:40.521Z,5.85
2023-05-05T14:50:46.336Z,6.70
2023-05-05T14:53:49.919Z,9.15
2023-05-05T14:56:53.178Z,7.20
2023-05-05T14:59:56.426Z,6.17
2023-05-05T15:03:00.061Z,6.75
2023-05-05T15:06:03.443Z,5.95
2023-05-05T15:09:06.750Z,5.90
2023-05-05T15:12:09.976Z,5.35
2023-05-05T15:15:13.396Z,6.93
2023-05-05T15:18:16.767Z,5.40
2023-05-05T15:21:19.889Z,7.28
2023-05-05T15:24:23.563Z,6.80
2023-05-05T15:27:26.885Z,6.90
2023-05-05T15:30:30.093Z,12.37
2023-05-05T15:33:33.630Z,8.98
2023-05-05T15:36:36.827Z,7.05
2023-05-05T15:39:40.134Z,8.68
2023-05-05T15:42:43.632Z,7.68
2023-05-05T15:45:46.901Z,10.10
2023-05-05T15:48:50.122Z,7.45
2023-05-05T15:51:53.377Z,5.47
2023-05-05T15:54:56.576Z,6.85
2023-05-05T15:57:59.705Z,6.55
2023-05-05T16:01:03.029Z,6.90
2023-05-05T16:04:07.460Z,8.02
2023-05-05T16:07:11.314Z,7.50
2023-05-05T16:10:14.604Z,7.22
2023-05-05T16:13:18.471Z,6.15
2023-05-05T16:16:21.932Z,5.80
2023-05-05T16:19:26.776Z,7.30
2023-05-05T16:22:30.571Z,6.75
2023-05-05T16:25:33.818Z,7.88
2023-05-05T16:28:37.763Z,6.55
2023-05-05T16:31:41.326Z,6.77
2023-05-05T16:34:44.754Z,6.88
2023-05-05T16:37:47.896Z,9.35
2023-05-05T16:40:51.130Z,6.78
2023-05-05T16:43:54.735Z,6.28
2023-05-05T16:46:58.673Z,6.30
2023-05-05T16:50:01.902Z,6.60
2023-05-05T16:53:05.303Z,6.28
2023-05-05T16:56:11.357Z,7.38
2023-05-05T16:59:16.791Z,6.82
2023-05-05T17:02:20.266Z,8.87
2023-05-05T17:05:23.682Z,10.10
2023-05-05T17:08:36.495Z,5.80
2023-05-05T17:11:39.775Z,4.90
2023-05-05T17:14:43.066Z,7.90
2023-05-05T17:17:46.375Z,6.47
2023-05-05T17:20:50.406Z,7.53
2023-05-05T17:23:53.782Z,8.68
2023-05-05T17:26:57.107Z,6.13
2023-05-05T17:30:00.345Z,8.90
2023-05-05T17:33:03.595Z,7.27
2023-05-05T17:36:07.171Z,7.43
2023-05-05T17:39:11.468Z,7.70
2023-05-05T17:42:16.717Z,7.85
2023-05-05T17:45:20.858Z,6.15
2023-05-05T17:48:24.146Z,7.13
2023-05-05T17:51:28.303Z,6.28
2023-05-05T17:54:31.602Z,9.30
2023-05-05T17:57:35.358Z,9.40
2023-05-05T18:00:39.012Z,9.45
2023-05-05T18:03:42.184Z,9.30
2023-05-05T18:06:45.420Z,9.02
2023-05-05T18:09:48.740Z,6.25
2023-05-05T18:12:52.028Z,9.75
2023-05-05T18:15:55.305Z,6.80
2023-05-05T18:18:58.868Z,7.93
2023-05-05T18:22:02.125Z,10.43
2023-05-05T18:25:07.990Z,8.48
2023-05-05T18:28:11.579Z,10.57
2023-05-05T18:31:14.999Z,9.23
2023-05-05T18:34:19.187Z,9.20
2023-05-05T18:37:22.374Z,10.70
2023-05-05T18:40:25.549Z,11.02
2023-05-05T18:43:29.144Z,8.57
2023-05-05T18:46:32.403Z,7.10
2023-05-05T18:49:36.129Z,8.07
2023-05-05T18:52:39.412Z,9.85
2023-05-05T18:55:43.391Z,8.25
2023-05-05T18:58:46.688Z,9.65
2023-05-05T19:01:51.981Z,8.80
2023-05-05T19:04:55.501Z,7.80
2023-05-05T19:07:59.105Z,12.57
2023-05-05T19:11:02.327Z,9.40
2023-05-05T19:14:05.640Z,11.27
2023-05-05T19:17:08.881Z,9.43
2023-05-05T19:20:12.411Z,8.57
2023-05-05T19:23:15.646Z,8.32
2023-05-05T19:26:18.921Z,10.35
2023-05-05T19:29:22.260Z,9.23
2023-05-05T19:32:26.181Z,9.48
2023-05-05T19:35:31.324Z,9.30
2023-05-05T19:38:34.532Z,7.95
2023-05-05T19:41:37.709Z,8.43
2023-05-05T19:44:41.107Z,7.35
2023-05-05T19:47:44.516Z,8.18
2023-05-05T19:50:48.359Z,8.97
2023-05-05T19:53:51.600Z,9.38
2023-05-05T19:56:57.192Z,10.23
2023-05-05T20:00:00.831Z,9.32
2023-05-05T20:03:04.329Z,8.93
2023-05-05T20:06:07.712Z,8.43
2023-05-05T20:09:11.013Z,10.82
2023-05-05T20:12:14.639Z,11.07
2023-05-05T20:15:20.622Z,10.88
2023-05-05T20:18:24.267Z,10.95
2023-05-05T20:21:27.614Z,10.13
2023-05-05T20:24:30.995Z,11.25
2023-05-05T20:27:35.947Z,10.25
2023-05-05T20:30:39.565Z,10.80
2023-05-05T20:33:43.328Z,11.30
2023-05-05T20:36:46.804Z,13.63
2023-05-05T20:39:50.176Z,11.05
2023-05-05T20:42:53.361Z,10.18
2023-05-05T20:45:56.492Z,12.07
2023-05-05T20:49:00.105Z,13.75
2023-05-05T20:52:03.709Z,10.13
2023-05-05T20:55:08.656Z,12.38
2023-05-05T20:58:12.012Z,11.98
2023-05-05T21:01:15.383Z,9.93
2023-05-05T21:04:18.931Z,11.43
2023-05-05T21:07:22.180Z,11.37
2023-05-05T21:10:25.735Z,10.77
2023-05-05T21:13:29.162Z,14.68
2023-05-05T21:16:32.455Z,10.55
2023-05-05T21:19:35.720Z,11.15
2023-05-05T21:22:38.923Z,10.83
2023-05-05T21:25:42.270Z,10.18
2023-05-05T21:28:45.582Z,11.40
2023-05-05T21:31:48.912Z,12.70
2023-05-05T21:34:52.185Z,10.85
2023-05-05T21:37:55.694Z,12.17
2023-05-05T21:40:59.433Z,11.10
2023-05-05T21:44:02.677Z,13.15
2023-05-05T21:47:06.351Z,13.48
2023-05-05T21:50:10.896Z,14.35
2023-05-05T21:53:14.450Z,11.47
2023-05-05T21:56:17.708Z,15.27
2023-05-05T21:59:21.206Z,13.82
2023-05-05T22:02:24.564Z,14.18
2023-05-05T22:05:27.984Z,12.73
2023-05-05T22:08:31.144Z,13.83
2023-05-05T22:11:34.711Z,12.98
2023-05-05T22:14:38.109Z,13.35
2023-05-05T22:17:41.365Z,14.27
2023-05-05T22:20:44.696Z,14.18
2023-05-05T22:23:48.004Z,15.60
2023-05-05T22:26:51.251Z,16.13
2023-05-05T22:29:54.480Z,17.00
2023-05-05T22:32:57.777Z,17.95
2023-05-05T22:36:01.429Z,18.60
2023-05-05T22:39:04.696Z,16.93
2023-05-05T22:42:08.002Z,16.95
2023-05-05T22:45:11.808Z,19.10
2023-05-05T22:48:17.948Z,23.17
2023-05-05T22:51:21.182Z,19.60
2023-05-05T22:54:26.952Z,17.50
2023-05-05T22:57:30.362Z,17.08
2023-05-05T23:00:36.276Z,16.75
2023-05-05T23:03:39.634Z,21.05
2023-05-05T23:06:42.960Z,18.65
2023-05-05T23:09:47.650Z,17.30
2023-05-05T23:12:51.998Z,17.77
2023-05-05T23:15:55.348Z,19.13
2023-05-05T23:18:58.573Z,19.98
2023-05-05T23:22:02.579Z,21.75
2023-05-05T23:25:06.498Z,19.20
2023-05-05T23:28:10.136Z,20.58
2023-05-05T23:31:13.522Z,20.83
2023-05-05T23:34:16.790Z,17.85
2023-05-05T23:37:20.039Z,19.40
2023-05-05T23:40:23.357Z,19.93
2023-05-05T23:43:26.904Z,18.15
2023-05-05T23:46:30.222Z,19.67
2023-05-05T23:49:33.527Z,16.63
2023-05-05T23:52:36.729Z,18.88
2023-05-05T23:55:40.034Z,15.30
2023-05-05T23:58:43.299Z,17.70
